Latest Weather Observations for Cloncurry

IDQ60801

Issued at 7:02 am EST Saturday 10 December 2016 (issued every 30 minutes, with the page automatically refreshed every 10 minutes)

About weather observations | Map of weather stations | Latest weather observations for QLD | Other Formats
Station Details ID: 029141 Name: CLONCURRY AIRPORT Lat: -20.67 Lon: 140.50 Height: 186.0 m
Data from the previous 72 hours. | See also: Recent months at Cloncurry
Date/Time
EST
Temp
°C
App
Temp
°C
Dew
Point
°C
Rel
Hum
%
Delta-T
°C
Wind Press
QNH
hPa
Press
MSL
hPa
Rain since
9am
mm
Dir  Spd
km/h
Gust
km/h
Spd
kts
Gust
kts
10/06:30am 25.0 23.4 15.0 53 6.0 SSW 17 20 9 11 1012.6 1011.2 0.4
10/06:00am 25.2 26.1 18.4 66 4.3 SSE 11 13 6 7 1012.2 1010.8 0.4
10/05:30am 25.0 27.3 19.8 73 3.4 SSE 7 9 4 5 1011.3 1009.8 0.4
10/05:00am 25.2 27.5 19.8 72 3.5 SSE 7 7 4 4 1010.8 1009.3 0.4
10/04:30am 25.2 27.4 19.6 71 3.6 SSE 7 9 4 5 1010.4 1008.9 0.4
10/04:00am 24.9 27.2 19.9 74 3.3 SSE 7 9 4 5 1010.1 1008.6 0.4
10/03:30am 24.7 27.0 20.6 78 2.7 SSE 9 11 5 6 1009.9 1008.4 0.4
10/03:00am 24.8 27.0 20.5 77 2.8 SSE 9 9 5 5 1009.8 1008.3 0.4
10/02:30am 24.8 27.3 20.3 76 2.9 SSE 7 9 4 5 1009.9 1008.4 0.4
10/02:00am 24.7 26.8 20.2 76 2.9 SSE 9 11 5 6 1010.1 1008.6 0.4
10/01:30am 25.0 27.3 20.7 77 2.8 SSE 9 11 5 6 1010.4 1008.9 0.4
10/01:00am 25.2 28.3 21.1 78 2.7 SSE 6 7 3 4 1010.8 1009.3 0.4
10/12:30am 25.9 28.7 20.5 72 3.6 SSE 6 9 3 5 1011.1 1009.6 0.4
10/12:00am 26.4 30.0 19.8 67 4.3 CALM 0 0 0 0 1011.7 1010.3 0.0
 
Date/Time
EST
Temp
°C
App
Temp
°C
Dew
Point
°C
Rel
Hum
%
Delta-T
°C
Wind Press
QNH
hPa
Press
MSL
hPa
Rain since
9am
mm
Dir  Spd
km/h
Gust
km/h
Spd
kts
Gust
kts
09/11:30pm 26.3 27.6 19.2 65 4.6 SSE 11 13 6 7 1012.0 1010.6 0.0
09/11:00pm 27.6 28.7 18.0 55 6.1 SSE 9 11 5 6 1012.4 1011.0 0.0
09/10:30pm 28.4 28.0 15.3 45 8.1 SSE 11 15 6 8 1012.6 1011.2 0.0
09/10:00pm 29.0 27.2 14.4 41 8.9 SSE 17 20 9 11 1011.9 1010.5 0.0
09/09:30pm 29.2 26.6 13.8 39 9.3 SSW 20 28 11 15 1011.7 1010.3 0.0
09/09:00pm 30.1 26.9 13.0 35 10.2 SSW 22 32 12 17 1011.6 1010.2 0.0
09/08:30pm 30.5 27.1 12.4 33 10.7 SSW 22 32 12 17 1011.2 1009.7 0.0
09/08:00pm 31.3 27.0 12.2 31 11.3 SSW 26 37 14 20 1010.8 1009.3 0.0
09/07:30pm 32.2 27.9 11.9 29 12.0 SSW 26 35 14 19 1010.2 1008.7 0.0
09/07:00pm 32.8 29.5 12.9 29 12.0 SSW 22 28 12 15 1009.8 1008.3 0.0
09/06:30pm 33.1 29.7 13.7 31 11.9 S 24 32 13 17 1009.4 1007.9 0.0
09/06:00pm 32.7 30.8 14.3 32 11.3 SSE 17 20 9 11 1009.3 1007.8 0.0
09/05:30pm 32.6 28.6 14.2 32 11.3 S 28 35 15 19 1009.3 1007.8 0.0
09/05:00pm 33.6 30.3 14.1 30 12.0 SSW 24 33 13 18 1008.9 1007.4 0.0
09/04:30pm 34.3 31.3 14.7 30 12.2 SSE 24 30 13 16 1008.7 1007.2 0.0
09/04:00pm 34.5 32.3 14.9 31 12.3 S 20 28 11 15 1008.6 1007.1 0.0
09/03:30pm 35.0 31.8 14.3 29 12.8 SSE 24 33 13 18 1008.7 1007.2 0.0
09/03:00pm 35.1 32.7 13.9 28 13.1 S 19 35 10 19 1008.9 1007.4 0.0
09/02:30pm 35.1 33.7 14.4 29 12.9 SSE 15 30 8 16 1009.1 1007.6 0.0
09/02:00pm 35.1 32.7 13.9 28 13.1 SE 19 33 10 18 1009.4 1007.9 0.0
09/01:30pm 35.2 33.2 15.0 30 12.7 SE 19 30 10 16 1009.9 1008.4 0.0
09/01:00pm 34.2 33.2 14.7 31 12.2 S 13 24 7 13 1010.3 1008.8 0.0
09/12:30pm 33.2 31.5 14.8 33 11.4 SSW 17 28 9 15 1010.8 1009.3 0.0
09/12:00pm 33.2 32.5 16.5 36 10.6 S 15 32 8 17 1011.2 1009.7 0.0
09/11:30am 31.6 29.1 15.1 36 10.2 SSE 22 32 12 17 1011.7 1010.3 0.0
09/11:00am 31.1 29.4 16.3 41 9.3 SSE 20 28 11 15 1012.1 1010.7 0.0
09/10:30am 30.2 29.5 17.3 46 8.2 S 17 24 9 13 1012.2 1010.8 0.0
09/10:00am 29.3 28.2 17.2 48 7.7 S 19 24 10 13 1012.9 1011.5 0.0
09/09:30am 28.3 26.1 16.9 50 7.2 S 24 32 13 17 1013.0 1011.6 0.0
09/09:00am 28.2 27.3 17.7 53 6.7 S 19 28 10 15 1013.0 1011.6 0.6
09/08:30am 27.1 26.2 18.1 58 5.7 S 20 28 11 15 1012.9 1011.5 0.6
09/08:00am 26.4 24.7 18.0 60 5.3 S 24 32 13 17 1012.8 1011.4 0.6
09/07:30am 25.7 24.9 18.4 64 4.7 SSW 20 26 11 14 1012.5 1011.1 0.6
09/07:00am 24.7 25.2 19.3 72 3.5 S 15 20 8 11 1012.4 1011.0 0.6
09/06:30am 24.8 23.3 17.8 65 4.4 S 22 30 12 16 1012.1 1010.7 0.2
09/06:00am 27.3 25.0 15.7 49 7.2 S 22 30 12 16 1011.4 1009.9 0.0
09/05:30am 27.5 24.8 15.5 48 7.4 SSW 24 32 13 17 1010.9 1009.4 0.0
09/05:00am 27.7 25.0 15.7 48 7.4 S 24 33 13 18 1010.3 1008.8 0.0
09/04:30am 27.7 24.2 15.4 47 7.6 S 28 35 15 19 1010.1 1008.6 0.0
09/04:00am 28.1 26.1 15.4 46 7.8 S 20 30 11 16 1010.0 1008.5 0.0
09/03:30am 28.3 25.8 15.2 44 8.0 S 22 30 12 16 1009.5 1008.0 0.0
09/03:00am 28.5 25.5 14.7 43 8.4 S 24 32 13 17 1009.2 1007.7 0.0
09/02:30am 28.9 24.4 13.9 39 9.0 S 30 41 16 22 1009.3 1007.8 0.0
09/02:00am 29.2 25.6 14.2 40 9.1 S 26 35 14 19 1009.3 1007.8 0.0
09/01:30am 29.3 25.0 14.3 40 9.1 S 30 39 16 21 1009.3 1007.8 0.0
09/01:00am 29.4 25.5 14.4 40 9.1 S 28 39 15 21 1009.4 1007.9 0.0
09/12:30am 29.6 25.9 15.0 41 9.0 S 28 39 15 21 1009.8 1008.3 0.0
09/12:29am 29.6 25.9 15.0 41 9.0 S 28 46 15 25 1009.8 1008.3 0.0
09/12:00am 30.0 25.4 16.1 43 8.7 S 35 50 19 27 1010.1 1008.6 0.0
 
Date/Time
EST
Temp
°C
App
Temp
°C
Dew
Point
°C
Rel
Hum
%
Delta-T
°C
Wind Press
QNH
hPa
Press
MSL
hPa
Rain since
9am
mm
Dir  Spd
km/h
Gust
km/h
Spd
kts
Gust
kts
08/11:34pm 30.5 25.5 16.1 41 9.0 S 37 56 20 30 1010.0 1008.5 0.0
08/11:30pm 30.6 25.6 16.2 41 9.1 S 37 50 20 27 1010.1 1008.6 0.0
08/11:00pm 31.3 26.3 16.1 40 9.6 S 37 48 20 26 1010.3 1008.8 0.0
08/10:30pm 31.8 27.0 15.7 37 10.1 S 35 46 19 25 1009.9 1008.4 0.0
08/10:00pm 32.3 27.4 15.3 35 10.6 S 35 50 19 27 1009.5 1008.0 0.0
08/09:30pm 33.3 27.8 14.8 32 11.5 S 37 50 20 27 1008.7 1007.2 0.0
08/09:00pm 34.1 28.2 14.6 31 12.1 S 39 61 21 33 1008.1 1006.6 0.0
08/08:51pm 34.6 29.8 14.0 29 12.7 S 32 50 17 27 1008.0 1006.5 0.0
08/08:30pm 34.1 30.4 15.1 32 11.9 SSW 28 35 15 19 1007.5 1006.1 0.0
08/08:00pm 33.9 28.5 14.9 32 11.9 SSW 37 46 20 25 1007.1 1005.7 0.0
08/07:30pm 33.9 29.2 14.9 32 11.9 SSW 33 46 18 25 1007.0 1005.6 0.0
08/07:00pm 34.2 29.1 14.7 31 12.2 SSW 35 48 19 26 1006.5 1005.0 0.0
08/06:30pm 35.2 29.0 15.0 30 12.7 SW 41 59 22 32 1005.8 1004.3 0.0
08/06:18pm 35.4 29.7 15.2 30 12.7 SW 39 57 21 31 1005.6 1004.1 0.0
08/06:00pm 35.8 30.0 15.0 29 13.1 SW 39 52 21 28 1005.2 1003.7 0.0
08/05:35pm 37.5 33.1 12.8 22 15.1 WSW 28 56 15 30 1004.6 1003.1 0.0
08/05:30pm 40.1 36.7 10.4 17 17.8 W 19 26 10 14 1004.2 1002.7 0.0
08/05:00pm 40.9 38.0 8.1 14 19.1 N 13 20 7 11 1003.8 1002.3 0.0
08/04:30pm 41.1 39.3 7.2 13 19.5 NNW 6 11 3 6 1003.6 1002.1 0.0
08/04:00pm 42.1 38.8 8.0 13 19.9 NE 15 26 8 14 1003.7 1002.2 0.0
08/03:30pm 42.3 40.2 8.1 13 20.0 NW 9 20 5 11 1004.0 1002.5 0.0
08/03:00pm 41.3 37.8 7.4 13 19.6 NNW 15 24 8 13 1004.2 1002.7 0.0
08/02:30pm 41.1 38.9 9.3 15 18.8 N 11 24 6 13 1004.8 1003.3 0.0
08/02:00pm 41.3 39.0 10.4 16 18.6 WNW 13 20 7 11 1005.2 1003.7 0.0
08/01:30pm 40.1 37.9 12.1 19 17.2 N 15 24 8 13 1005.8 1004.3 0.0
08/01:00pm 39.6 37.8 13.2 21 16.4 NW 15 26 8 14 1006.4 1004.9 0.0
08/12:30pm 39.9 37.7 14.8 22 15.9 NNW 20 30 11 16 1006.8 1005.4 0.0
08/12:00pm 38.9 35.9 14.7 24 15.3 NNW 24 37 13 20 1007.1 1005.7 0.0
08/11:30am 38.5 35.6 15.0 25 14.9 N 24 32 13 17 1007.6 1006.2 0.0
08/11:00am 37.6 35.0 14.8 25 14.4 NNW 22 35 12 19 1008.1 1006.6 0.0
08/10:30am 37.9 35.0 16.2 27 14.0 NNW 26 37 14 20 1008.3 1006.8 0.0
08/10:00am 37.9 36.1 17.8 30 13.2 NNW 24 33 13 18 1008.3 1006.8 0.0
08/09:30am 35.7 35.0 17.4 33 11.9 NNW 17 28 9 15 1008.5 1007.0 0.0
08/09:00am 35.2 35.5 19.6 40 10.4 NNW 17 22 9 12 1008.7 1007.2 0.0
08/08:30am 32.8 33.9 19.7 46 8.7 NNW 13 20 7 11 1008.6 1007.1 0.0
08/08:00am 31.8 32.9 20.4 51 7.6 NNW 15 24 8 13 1008.6 1007.1 0.0
08/07:30am 30.6 31.4 19.9 52 7.1 NNW 15 19 8 10 1008.5 1007.0 0.0
08/07:00am 29.7 30.8 18.8 52 7.1 WSW 11 17 6 9 1008.3 1006.8 0.0
08/06:30am 28.5 29.2 18.0 53 6.7 WSW 11 15 6 8 1008.1 1006.6 0.0
08/06:00am 28.1 28.7 16.7 50 7.2 WSW 9 13 5 7 1007.8 1006.4 0.0
08/05:30am 28.1 29.6 18.8 57 6.0 NNW 9 11 5 6 1007.3 1005.9 0.0
08/05:00am 28.8 28.1 16.4 47 7.8 N 15 19 8 10 1006.7 1005.3 0.0
08/04:30am 29.5 27.0 11.1 32 10.6 N 15 19 8 10 1006.5 1005.0 0.0
08/04:00am 30.0 28.4 11.5 32 10.8 NE 11 15 6 8 1006.5 1005.0 0.0
08/03:30am 30.8 29.6 11.7 31 11.2 NE 9 13 5 7 1006.3 1004.8 0.0
08/03:00am 30.4 28.8 11.4 31 11.1 ESE 11 15 6 8 1006.3 1004.8 0.0
08/02:30am 32.0 30.2 10.7 27 12.4 SE 11 17 6 9 1006.3 1004.8 0.0
08/02:00am 31.1 27.5 10.4 28 12.0 SE 20 30 11 16 1006.5 1005.0 0.0
08/01:30am 29.4 29.0 11.0 32 10.6 NE 4 6 2 3 1005.8 1004.3 0.0
08/01:00am 30.5 29.6 11.5 31 11.1 NE 7 7 4 4 1006.0 1004.5 0.0
08/12:30am 30.0 28.9 12.0 33 10.6 NE 9 9 5 5 1006.2 1004.7 0.0
08/12:00am 29.5 30.0 11.5 33 10.5 CALM 0 0 0 0 1006.5 1005.0 0.0
 
Date/Time
EST
Temp
°C
App
Temp
°C
Dew
Point
°C
Rel
Hum
%
Delta-T
°C
Wind Press
QNH
hPa
Press
MSL
hPa
Rain since
9am
mm
Dir  Spd
km/h
Gust
km/h
Spd
kts
Gust
kts
07/11:30pm 30.4 31.0 11.9 32 10.9 CALM 0 0 0 0 1006.8 1005.4 0.0
07/11:00pm 30.3 30.9 11.8 32 10.9 CALM 0 0 0 0 1007.0 1005.6 0.0
07/10:30pm 31.8 32.1 11.0 28 12.1 CALM 0 0 0 0 1007.2 1005.8 0.0
07/10:00pm 33.2 32.5 9.9 24 13.5 NE 4 6 2 3 1007.1 1005.7 0.0
07/09:30pm 34.5 32.4 9.7 22 14.4 NE 11 13 6 7 1006.8 1005.4 0.0
07/09:00pm 35.0 33.2 9.4 21 14.8 NE 9 11 5 6 1006.7 1005.3 0.0
07/08:30pm 36.4 33.9 8.3 18 16.1 NE 11 13 6 7 1006.5 1005.0 0.0
07/08:00pm 37.9 34.9 7.7 16 17.3 NE 13 17 7 9 1006.4 1004.9 0.0
07/07:30pm 38.5 35.4 7.3 15 17.7 NE 13 15 7 8 1006.3 1004.8 0.0
07/07:00pm 39.9 35.8 6.3 13 19.0 NE 17 22 9 12 1006.1 1004.6 0.0
07/06:30pm 40.7 36.4 6.9 13 19.3 ENE 19 24 10 13 1005.7 1004.2 0.0
07/06:00pm 41.3 38.6 7.4 13 19.6 ENE 11 20 6 11 1005.7 1004.2 0.0
07/05:30pm 41.4 38.7 7.4 13 19.6 NNE 11 20 6 11 1005.7 1004.2 0.0
07/05:00pm 41.7 37.4 7.7 13 19.8 NE 20 30 11 16 1005.6 1004.1 0.0
07/04:30pm 41.2 38.7 8.4 14 19.2 NE 11 24 6 13 1005.5 1004.0 0.0
07/04:00pm 41.6 37.8 7.6 13 19.7 NNE 17 26 9 14 1005.7 1004.2 0.0
07/03:30pm 42.2 39.6 9.2 14 19.6 ENE 13 24 7 13 1006.0 1004.5 0.0
07/03:00pm 41.6 37.5 8.7 14 19.4 NNE 20 28 11 15 1006.3 1004.8 0.0
07/02:30pm 41.2 37.5 9.4 15 18.8 NE 19 32 10 17 1006.8 1005.4 0.0
07/02:00pm 40.9 37.9 9.2 15 18.7 NNE 15 22 8 12 1007.2 1005.8 0.0
07/01:30pm 40.1 37.3 8.5 15 18.4 NE 13 20 7 11 1007.8 1006.4 0.0
07/01:00pm 39.8 38.2 10.2 17 17.7 N 9 19 5 10 1008.3 1006.8 0.0
07/12:30pm 40.1 38.3 12.1 19 17.2 E 13 17 7 9 1008.9 1007.4 0.0
07/12:00pm 38.9 37.2 11.1 19 16.7 N 11 28 6 15 1009.2 1007.7 0.0
07/11:30am 37.7 35.7 11.6 21 15.7 NNE 13 19 7 10 1009.8 1008.3 0.0
07/11:00am 37.4 36.3 12.1 22 15.4 N 9 17 5 9 1010.4 1008.9 0.0
07/10:30am 36.1 34.7 12.3 24 14.4 N 11 17 6 9 1010.9 1009.4 0.0
07/10:00am 35.9 34.9 12.2 24 14.3 NNE 9 15 5 8 1011.2 1009.7 0.0
07/09:30am 34.8 33.5 12.5 26 13.5 NE 11 19 6 10 1011.1 1009.6 0.0
07/09:00am 34.0 33.2 12.9 28 12.8 E 9 17 5 9 1011.2 1009.7 0.0
07/08:30am 33.6 32.1 14.1 30 12.0 ESE 15 22 8 12 1011.2 1009.7 0.0
07/08:00am 33.2 32.1 15.2 33 11.3 SE 15 20 8 11 1011.2 1009.7 0.0
07/07:30am 31.9 31.4 15.0 36 10.5 SSE 11 15 6 8 1010.8 1009.3 0.0

Other Formats:

Comma delimited format used in spreadsheet applications
http://www.bom.gov.au/fwo/IDQ60801/IDQ60801.94335.axf

JavaScript Object Notation format (JSON) in row-major order
http://www.bom.gov.au/fwo/IDQ60801/IDQ60801.94335.json